Flight Track Log - Related Links

Times and Time Zones

All times are in EDT time to prevent confusion due to time zone crossing. See the AWE769 flight status page for this flight to view local times or setup timezone preferences in your user account.

Time Position Orientation Groundspeed Altitude Reporting Facility
EDT Latitude Longitude Course Direction KTS MPH feet Rate Location/Type
Thu 04:08:40 PM 39.8667 -75.2833 226° Southwest 163 188 900  Level Philadelphia TRACON
Thu 04:09:04 PM 39.8500 -75.3000 218° Southwest 174 200 1,600 2,231 Climbing Philadelphia TRACON
Thu 04:09:58 PM 39.8500 -75.3667 270° West 228 262 3,800 2,483 Climbing Philadelphia TRACON
Thu 04:11:00 PM 39.8334 -75.7208 270° West  Level FlightAware
Thu 04:11:29 PM 39.8253 -75.4903 255° West 256 295 7,600  Level New Center
Thu 04:12:00 PM 39.7847 -75.8645 232° Southwest  Level FlightAware
Thu 04:12:29 PM 39.8231 -75.5956 268° West 256 295 10,000  Level New Center
Thu 04:13:00 PM 39.7029 -75.9906 226° Southwest  Level FlightAware
Thu 04:13:30 PM 39.8317 -75.6908 277° West 283 326 10,000  Level New Center
Thu 04:14:30 PM 39.8264 -75.8122 267° West 300 345 12,100 2,017 Climbing New Center
Thu 04:15:29 PM 39.7747 -75.8975 232° Southwest 300 345 14,000 1,664 Climbing New Center
Thu 04:16:29 PM 39.7053 -76.0086 231° Southwest 352 405 15,400 2,459 Climbing New Center
Thu 04:17:31 PM 39.6447 -76.1039 230° Southwest 378 435 19,000 3,071 Climbing New Center
Thu 04:17:53 PM 39.6164 -76.1544 234° Southwest 378 435 19,700 1,880 Climbing Washington Center
Thu 04:18:54 PM 39.5533 -76.2536 231° Southwest 364 419 21,600 1,835 Climbing Washington Center
Thu 04:19:54 PM 39.4861 -76.3553 229° Southwest 364 419 23,400 1,574 Climbing Washington Center
Thu 04:20:56 PM 39.4189 -76.4619 231° Southwest 376 433 24,800 1,462 Climbing Washington Center
Thu 04:21:53 PM 39.3514 -76.5606 229° Southwest 383 441 26,300 1,487 Climbing Washington Center
Thu 04:22:53 PM 39.2817 -76.6694 230° Southwest 397 457 27,700 1,488 Climbing Washington Center
Thu 04:23:54 PM 39.2119 -76.7783 230° Southwest 402 463 29,300 1,091 Climbing Washington Center
Thu 04:24:54 PM 39.1419 -76.8869 230° Southwest 402 463 29,900 843 Climbing Washington Center
Thu 04:25:55 PM 39.0697 -77.0006 231° Southwest 407 468 31,000 984 Climbing Washington Center
Thu 04:26:56 PM 38.9853 -77.1031 223° Southwest 412 474 31,900 504 Climbing Washington Center
Thu 04:27:54 PM 38.8942 -77.2053 221° Southwest 418 481 32,000 50 Climbing Washington Center
Thu 04:28:55 PM 38.8011 -77.3044 220° Southwest 430 495 32,000  Level Washington Center
Thu 04:29:53 PM 38.7100 -77.4033 220° Southwest 440 506 32,000  Level Washington Center
Thu 04:30:53 PM 38.6189 -77.5047 221° Southwest 440 506 32,000  Level Washington Center
Thu 04:31:54 PM 38.5192 -77.6136 221° Southwest 440 506 32,000  Level Washington Center
Thu 04:32:55 PM 38.4256 -77.7119 219° Southwest 440 506 32,000  Level Washington Center
Thu 04:33:53 PM 38.3361 -77.8125 221° Southwest 435 501 32,000  Level Washington Center
Thu 04:34:53 PM 38.2447 -77.9103 220° Southwest 435 501 32,000  Level Washington Center
Thu 04:35:54 PM 38.1531 -78.0078 220° Southwest 435 501 32,000  Level Washington Center
Thu 04:36:54 PM 38.0594 -78.1050 219° Southwest 435 501 32,000  Level Washington Center
Thu 04:37:53 PM 37.9803 -78.1894 220° Southwest 435 501 32,000  Level Washington Center
Thu 04:38:53 PM 37.8739 -78.2883 216° Southwest 430 495 32,000  Level Washington Center
Thu 04:39:54 PM 37.7781 -78.3819 218° Southwest 435 501 32,000  Level Washington Center
Thu 04:40:53 PM 37.6778 -78.4728 216° Southwest 440 506 32,000  Level Washington Center
Thu 04:41:53 PM 37.5817 -78.5661 218° Southwest 445 512 32,000  Level Washington Center
Thu 04:42:54 PM 37.4919 -78.6492 216° Southwest 445 512 32,000  Level Washington Center
Thu 04:43:55 PM 37.3917 -78.7392 216° Southwest 445 512 32,000  Level Washington Center
Thu 04:44:53 PM 37.2953 -78.8317 217° Southwest 445 512 32,000  Level Washington Center
Thu 04:45:53 PM 37.1967 -78.9214 216° Southwest 445 512 32,000  Level Washington Center
Thu 04:46:53 PM 37.0983 -79.0136 217° Southwest 445 512 32,000  Level Washington Center
Thu 04:47:54 PM 36.9889 -79.1153 217° Southwest 445 512 32,000  Level Washington Center
Thu 04:48:55 PM 36.8903 -79.2069 217° Southwest 445 512 32,000  Level Washington Center
Thu 04:49:55 PM 36.7894 -79.2981 216° Southwest 445 512 32,000  Level Washington Center
Thu 04:50:55 PM 36.6928 -79.3867 216° Southwest 445 512 32,000  Level Washington Center
Thu 04:51:53 PM 36.6022 -79.4703 217° Southwest 445 512 32,000  Level Washington Center
Thu 04:52:53 PM 36.5056 -79.5586 216° Southwest 445 512 32,000  Level Washington Center
Thu 04:55:10 PM 36.2636 -79.7744 216° Southwest 466 536 32,000  Level Atlanta Center
Thu 04:56:10 PM 36.1644 -79.8619 215° Southwest 460 529 32,000  Level Atlanta Center
Thu 04:57:10 PM 36.0736 -79.9489 218° Southwest 460 529 32,000  Level Atlanta Center
Thu 04:58:10 PM 35.9569 -80.0189 206° Southwest 460 529 32,000  Level Atlanta Center
Thu 04:59:10 PM 35.8358 -80.0786 202° Southwest 465 535 32,000  Level Atlanta Center
Thu 05:00:10 PM 35.7064 -80.1439 202° Southwest 465 535 32,000  Level Atlanta Center
Thu 05:01:10 PM 35.5875 -80.2056 203° Southwest 465 535 32,000  Level Atlanta Center
Thu 05:02:10 PM 35.4725 -80.2647 203° Southwest 465 535 32,000  Level Atlanta Center
Thu 05:03:10 PM 35.3553 -80.3233 202° Southwest 465 535 32,000  Level Atlanta Center
Thu 05:04:10 PM 35.2361 -80.3797 201° Southwest 465 535 32,000  Level Atlanta Center
Thu 05:05:10 PM 35.1167 -80.4408 203° Southwest 465 535 32,000  Level Atlanta Center
Thu 05:08:27 PM 34.7342 -80.6342 203° Southwest 463 533 32,000  Level Jacksonville Center
Thu 05:09:27 PM 34.5997 -80.6981 201° Southwest 473 544 32,000  Level Jacksonville Center
Thu 05:10:27 PM 34.4817 -80.7489 200° South 478 550 32,000  Level Jacksonville Center
Thu 05:11:27 PM 34.3597 -80.8150 204° Southwest 473 544 32,000  Level Jacksonville Center
Thu 05:12:27 PM 34.2583 -80.8650 202° Southwest 464 534 32,000  Level Jacksonville Center
Thu 05:13:27 PM 34.1358 -80.9131 198° South 458 527 32,000  Level Jacksonville Center
Thu 05:14:27 PM 34.0114 -80.9536 195° South 458 527 32,000  Level Jacksonville Center
Thu 05:15:27 PM 33.8869 -80.9964 196° South 464 534 32,000  Level Jacksonville Center
Thu 05:16:27 PM 33.7478 -81.0417 195° South 470 541 32,000  Level Jacksonville Center
Thu 05:17:27 PM 33.6356 -81.0789 195° South 470 541 32,000  Level Jacksonville Center
Thu 05:18:27 PM 33.5108 -81.1189 195° South 470 541 32,000  Level Jacksonville Center
Thu 05:19:27 PM 33.3842 -81.1636 196° South 470 541 32,000  Level Jacksonville Center
Thu 05:20:27 PM 33.2450 -81.2086 195° South 476 548 32,000  Level Jacksonville Center
Thu 05:21:27 PM 33.1203 -81.2483 195° South 471 542 32,000  Level Jacksonville Center
Thu 05:22:27 PM 32.9956 -81.2900 196° South 471 542 32,000  Level Jacksonville Center
Thu 05:23:27 PM 32.8689 -81.3319 196° South 471 542 32,000  Level Jacksonville Center
Thu 05:24:27 PM 32.7439 -81.3711 195° South 471 542 32,000  Level Jacksonville Center
Thu 05:25:27 PM 32.6214 -81.4128 196° South 466 536 32,000  Level Jacksonville Center
Thu 05:26:27 PM 32.4986 -81.4542 196° South 460 529 32,000  Level Jacksonville Center
Thu 05:27:27 PM 32.3883 -81.4903 195° South 460 529 32,000  Level Jacksonville Center
Thu 05:28:27 PM 32.2511 -81.5317 194° South 460 529 32,000  Level Jacksonville Center
Thu 05:29:27 PM 32.1283 -81.5703 195° South 460 529 32,000  Level Jacksonville Center
Thu 05:30:27 PM 32.0056 -81.6089 195° South 454 522 32,000  Level Jacksonville Center
Thu 05:31:27 PM 31.8806 -81.6472 195° South 460 529 32,000  Level Jacksonville Center
Thu 05:32:27 PM 31.7744 -81.6781 194° South 456 525 32,000  Level Jacksonville Center
Thu 05:33:27 PM 31.6392 -81.7236 196° South 456 525 32,000  Level Jacksonville Center
Thu 05:34:27 PM 31.5206 -81.7617 195° South 456 525 32,000  Level Jacksonville Center
Thu 05:35:27 PM 31.3956 -81.7997 195° South 456 525 32,000  Level Jacksonville Center
Thu 05:36:27 PM 31.2747 -81.8425 197° South 448 516 32,000  Level Jacksonville Center
Thu 05:37:27 PM 31.1542 -81.8803 195° South 454 522 32,000  Level Jacksonville Center
Thu 05:38:27 PM 31.0311 -81.9181 195° South 454 522 32,000  Level Jacksonville Center
Thu 05:39:27 PM 30.9125 -81.9556 195° South 454 522 32,000  Level Jacksonville Center
Thu 05:40:27 PM 30.7894 -81.9906 194° South 454 522 32,000  Level Jacksonville Center
Thu 05:41:27 PM 30.6686 -82.0303 196° South 454 522 32,000  Level Jacksonville Center
Thu 05:42:27 PM 30.5500 -82.0653 194° South 454 522 32,000  Level Jacksonville Center
Thu 05:43:27 PM 30.4436 -82.0950 194° South 449 517 32,000  Level Jacksonville Center
Thu 05:44:27 PM 30.3206 -82.1322 195° South 449 517 32,000  Level Jacksonville Center
Thu 05:45:27 PM 30.2019 -82.1692 195° South 449 517 32,000  Level Jacksonville Center
Thu 05:46:27 PM 30.0789 -82.2061 195° South 454 522 32,000 -250 Level Jacksonville Center
Thu 05:47:27 PM 29.9600 -82.2478 197° South 454 522 31,500 -1,100 Descending Jacksonville Center
Thu 05:48:27 PM 29.8369 -82.2844 194° South 454 522 29,800 -1,700 Descending Jacksonville Center
Thu 05:49:27 PM 29.7161 -82.3186 194° South 454 522 28,100 -1,700 Descending Jacksonville Center
Thu 05:50:27 PM 29.5931 -82.3503 193° South 454 522 26,400 -2,150 Descending Jacksonville Center
Thu 05:51:27 PM 29.4658 -82.3439 177° South 454 522 23,800 -2,650 Descending Jacksonville Center
Thu 05:52:27 PM 29.3447 -82.3303 174° South 449 517 21,100 -2,750 Descending Jacksonville Center
Thu 05:53:27 PM 29.2278 -82.3167 174° South 437 503 18,300 -2,550 Descending Jacksonville Center
Thu 05:54:27 PM 29.1106 -82.3008 173° South 432 497 16,000 -1,550 Descending Jacksonville Center
Thu 05:55:27 PM 29.0022 -82.2894 175° South 414 476 15,200 -950 Descending Jacksonville Center
Thu 05:56:27 PM 28.8936 -82.2783 175° South 403 464 14,100 -825 Descending Jacksonville Center
Thu 05:58:07 PM 28.7000 -82.2500 173° South 379 436 13,000 -623 Descending Tampa TRACON
Thu 05:59:01 PM 28.6000 -82.2500 180° South 376 433 12,500 -789 Descending Tampa TRACON
Thu 06:00:01 PM 28.5000 -82.2500 180° South 379 436 11,500 -750 Descending Tampa TRACON
Thu 06:01:01 PM 28.4000 -82.2500 180° South 372 428 11,000 -238 Descending Tampa TRACON
Thu 06:02:07 PM 28.3167 -82.3000 208° Southwest 314 361 11,000 -200 Level Tampa TRACON
Thu 06:03:01 PM 28.2500 -82.3500 213° Southwest 304 350 10,600 -1,000 Descending Tampa TRACON
Thu 06:04:07 PM 28.1833 -82.4167 221° Southwest 283 326 9,000 -1,500 Descending Tampa TRACON
Thu 06:05:13 PM 28.1000 -82.4167 180° South 283 326 7,300 -1,550 Descending Tampa TRACON
Thu 06:06:07 PM 28.0333 -82.4167 180° South 275 316 5,900 -1,278 Descending Tampa TRACON
Thu 06:07:01 PM 27.9667 -82.4167 180° South 256 295 5,000 -905 Descending Tampa TRACON
Thu 06:08:13 PM 27.8833 -82.4500 199° South 229 264 4,000 -476 Descending Tampa TRACON
Thu 06:09:07 PM 27.8333 -82.4667 196° South 220 253 4,000 -350 Level Tampa TRACON
Thu 06:10:13 PM 27.8333 -82.5333 270° West 184 212 3,300 -636 Descending Tampa TRACON

Login

Don't have an account? Register now (free) for customized features, flight alerts, and more!